Time;durP1;ratioP1;P1;durP2;ratioP2;P2;SDS_P1;SDS_P2;PMS_P1;PMS_P2;Temp;Humidity;BMP_temperature;BMP_pressure;BME280_temperature;BME280_humidity;BME280_pressure;Samples;Min_cycle;Max_cycle;Signal;HPM_P1;HPM_P2
2023/02/17 00:00:53;;;;;;;34.10;25.90;;;;;;;7.30;98.43;101097.73;107632;1253;61048;-78
2023/02/17 00:03:20;;;;;;;34.50;24.50;;;;;;;7.37;98.23;101099.05;107297;1254;60892;-81
2023/02/17 00:05:48;;;;;;;30.20;23.90;;;;;;;7.44;98.00;101093.35;107484;1253;74500;-80
2023/02/17 00:08:16;;;;;;;39.80;33.30;;;;;;;7.50;98.24;101085.36;107597;1255;71142;-79
2023/02/17 00:10:44;;;;;;;33.70;29.10;;;;;;;7.56;98.13;101084.94;107310;1253;72015;-78
2023/02/17 00:13:11;;;;;;;25.80;20.20;;;;;;;7.62;97.92;101077.49;107369;1253;61665;-78
2023/02/17 00:15:38;;;;;;;26.00;20.40;;;;;;;7.67;97.58;101080.02;107369;1254;62208;-76
2023/02/17 00:18:05;;;;;;;25.00;18.60;;;;;;;7.71;97.55;101078.05;107510;1253;72469;-79
2023/02/17 00:20:32;;;;;;;24.00;18.40;;;;;;;7.77;97.86;101072.39;107412;1254;73040;-79
2023/02/17 00:22:59;;;;;;;23.90;18.90;;;;;;;7.81;97.42;101077.64;107393;1257;70502;-79
2023/02/17 00:25:26;;;;;;;25.10;19.80;;;;;;;7.88;97.67;101085.06;107558;1253;61244;-79
2023/02/17 00:27:52;;;;;;;29.10;25.50;;;;;;;7.93;97.57;101088.79;107362;1253;60958;-80
2023/02/17 00:30:20;;;;;;;26.10;20.50;;;;;;;7.98;97.48;101087.13;107587;1254;73061;-80
2023/02/17 00:32:47;;;;;;;25.60;22.40;;;;;;;8.03;97.60;101087.01;107532;1253;72278;-80
2023/02/17 00:35:14;;;;;;;27.90;24.50;;;;;;;8.07;97.81;101081.66;108441;1253;70441;-82
2023/02/17 00:37:44;;;;;;;24.80;17.90;;;;;;;8.09;98.09;101081.96;107413;1253;62450;-79
2023/02/17 00:40:12;;;;;;;21.30;16.10;;;;;;;8.13;98.16;101083.35;107566;1257;60215;-78
2023/02/17 00:42:39;;;;;;;20.90;16.00;;;;;;;8.17;98.07;101088.73;107737;1253;72705;-79
2023/02/17 00:45:07;;;;;;;21.00;16.40;;;;;;;8.20;98.03;101087.48;107545;1253;72476;-81
2023/02/17 00:47:34;;;;;;;19.20;15.40;;;;;;;8.23;98.40;101086.16;107458;1253;71907;-80
2023/02/17 00:50:01;;;;;;;20.60;15.60;;;;;;;8.26;98.38;101085.50;107711;1253;60981;-80
2023/02/17 00:52:28;;;;;;;21.30;16.20;;;;;;;8.28;98.41;101079.08;107634;1253;59240;-79
2023/02/17 00:54:55;;;;;;;21.90;15.90;;;;;;;8.29;98.63;101080.05;107424;1254;73170;-79
2023/02/17 00:57:22;;;;;;;19.50;15.50;;;;;;;8.31;98.69;101081.95;107625;1252;72360;-79
2023/02/17 00:59:48;;;;;;;21.90;16.30;;;;;;;8.32;99.34;101075.88;107538;1253;72954;-78
2023/02/17 01:02:15;;;;;;;21.80;17.00;;;;;;;8.32;99.56;101077.06;107473;1253;61156;-79
2023/02/17 01:04:43;;;;;;;23.10;16.40;;;;;;;8.35;99.42;101070.48;107512;1253;59285;-79
2023/02/17 01:07:10;;;;;;;20.00;15.10;;;;;;;8.34;99.26;101066.02;108158;1253;72872;-80
2023/02/17 01:09:37;;;;;;;21.40;15.90;;;;;;;8.37;99.20;101065.55;107527;1254;69854;-78
2023/02/17 01:12:04;;;;;;;19.50;14.10;;;;;;;8.37;99.45;101064.84;107673;1253;71142;-78
2023/02/17 01:14:30;;;;;;;20.80;16.20;;;;;;;8.37;99.69;101060.59;107668;1254;61107;-78
2023/02/17 01:16:57;;;;;;;21.90;17.30;;;;;;;8.37;99.68;101066.73;107220;1259;60834;-78
2023/02/17 01:19:24;;;;;;;26.00;19.50;;;;;;;8.39;100.00;101062.30;107469;1253;73396;-78
2023/02/17 01:21:51;;;;;;;26.80;20.20;;;;;;;8.40;100.00;101062.60;107576;1253;70915;-78
2023/02/17 01:24:18;;;;;;;24.30;18.60;;;;;;;8.44;99.91;101054.48;107757;1253;72873;-79
2023/02/17 01:26:45;;;;;;;29.50;21.30;;;;;;;8.44;100.00;101058.83;107548;1253;60467;-78
2023/02/17 01:29:12;;;;;;;26.50;19.80;;;;;;;8.46;100.00;101054.80;107504;1253;60540;-79
2023/02/17 01:31:39;;;;;;;33.30;22.40;;;;;;;8.48;99.98;101045.38;108405;1253;71994;-79
2023/02/17 01:34:06;;;;;;;23.60;17.20;;;;;;;8.48;100.00;101044.00;107860;1253;70951;-79
2023/02/17 01:36:34;;;;;;;23.60;17.30;;;;;;;8.50;100.00;101035.90;107638;1253;71729;-78
2023/02/17 01:39:00;;;;;;;38.60;22.40;;;;;;;8.51;100.00;101031.69;107319;1253;61770;-78
2023/02/17 01:41:31;;;;;;;25.60;18.20;;;;;;;8.52;100.00;101018.91;107558;1253;60434;-78
2023/02/17 01:44:03;;;;;;;23.90;16.00;;;;;;;8.55;100.00;101008.45;107846;1253;72575;-77
2023/02/17 01:46:35;;;;;;;22.00;15.40;;;;;;;8.55;100.00;101008.59;107759;1253;71714;-77
2023/02/17 01:49:08;;;;;;;17.10;13.60;;;;;;;8.56;100.00;100998.26;108668;1253;72692;-80
2023/02/17 01:51:37;;;;;;;26.10;16.00;;;;;;;8.59;100.00;101000.13;108619;1253;61268;-78
2023/02/17 01:54:19;;;;;;;17.30;13.90;;;;;;;8.61;100.00;100994.97;109088;1253;59456;-78
2023/02/17 01:56:47;;;;;;;20.00;14.80;;;;;;;8.62;100.00;100993.48;107498;1253;75123;-79
2023/02/17 01:59:20;;;;;;;24.20;16.80;;;;;;;8.66;100.00;100990.02;108282;1256;70045;-79
2023/02/17 02:01:54;;;;;;;20.60;15.80;;;;;;;8.68;100.00;100987.35;107629;1253;72148;-79
2023/02/17 02:04:25;;;;;;;19.10;14.40;;;;;;;8.72;100.00;100987.14;107490;1253;61530;-78
2023/02/17 02:06:52;;;;;;;29.50;21.30;;;;;;;8.75;100.00;100987.02;107609;1253;60852;-78
2023/02/17 02:09:29;;;;;;;27.10;18.40;;;;;;;8.78;100.00;100991.98;107563;1252;72577;-77
2023/02/17 02:11:56;;;;;;;33.10;22.80;;;;;;;8.82;100.00;100986.15;107274;1253;69963;-79
2023/02/17 02:14:23;;;;;;;28.80;19.50;;;;;;;8.86;100.00;100984.88;107476;1253;73216;-77
2023/02/17 02:17:18;;;;;;;35.40;23.30;;;;;;;8.87;100.00;100986.52;107760;1253;60040;-78
2023/02/17 02:19:55;;;;;;;32.20;20.80;;;;;;;8.87;100.00;100982.45;107540;1253;60337;-77
2023/02/17 02:22:54;;;;;;;36.50;23.30;;;;;;;8.90;100.00;100974.59;107630;1253;74021;-78
2023/02/17 02:25:44;;;;;;;36.80;22.40;;;;;;;8.93;100.00;100973.52;107361;1253;69818;-78
2023/02/17 02:28:52;;;;;;;32.20;20.00;;;;;;;8.95;100.00;100972.73;107469;1252;71955;-78
2023/02/17 02:31:28;;;;;;;33.10;21.40;;;;;;;8.99;100.00;100967.13;107607;1253;61058;-77
2023/02/17 02:34:09;;;;;;;32.10;20.40;;;;;;;9.02;100.00;100964.92;107446;1253;61120;-78
2023/02/17 02:37:00;;;;;;;34.20;22.00;;;;;;;9.04;100.00;100966.39;107375;1253;72732;-78
2023/02/17 02:39:38;;;;;;;29.40;18.40;;;;;;;9.08;100.00;100968.52;107304;1253;70864;-78
2023/02/17 02:42:09;;;;;;;22.70;16.10;;;;;;;9.10;100.00;100963.15;107410;1253;71440;-77
2023/02/17 02:44:36;;;;;;;23.10;16.80;;;;;;;9.12;100.00;100966.34;107571;1253;61444;-78
2023/02/17 02:47:06;;;;;;;28.70;18.70;;;;;;;9.13;100.00;100961.48;107201;1256;60339;-78
2023/02/17 02:49:35;;;;;;;24.70;17.00;;;;;;;9.15;100.00;100954.20;107478;1253;72660;-79
2023/02/17 02:52:24;;;;;;;23.80;16.70;;;;;;;9.15;100.00;100948.74;107158;1255;70956;-77
2023/02/17 02:55:21;;;;;;;21.00;15.50;;;;;;;9.15;100.00;100938.59;107386;1253;72497;-79
2023/02/17 02:58:01;;;;;;;23.40;16.20;;;;;;;9.18;100.00;100932.91;107664;1256;61534;-78
2023/02/17 03:00:56;;;;;;;19.40;15.60;;;;;;;9.19;100.00;100923.77;107611;1253;60623;-78
2023/02/17 03:03:35;;;;;;;20.30;16.40;;;;;;;9.20;99.97;100915.37;107476;1253;73922;-77
2023/02/17 03:06:14;;;;;;;21.00;15.60;;;;;;;9.21;100.00;100916.63;107419;1253;69668;-77
2023/02/17 03:09:00;;;;;;;20.20;15.10;;;;;;;9.23;99.99;100920.52;107267;1253;72357;-77
2023/02/17 03:11:33;;;;;;;20.40;13.80;;;;;;;9.24;100.00;100925.75;107389;1253;60431;-78
2023/02/17 03:14:06;;;;;;;18.70;14.30;;;;;;;9.27;100.00;100918.55;107466;1253;60089;-78
2023/02/17 03:16:35;;;;;;;17.30;14.30;;;;;;;9.30;99.91;100915.73;107280;1253;72505;-78
2023/02/17 03:19:03;;;;;;;15.70;13.50;;;;;;;9.31;99.99;100914.69;107144;1256;71365;-77
2023/02/17 03:21:36;;;;;;;15.50;12.90;;;;;;;9.35;99.93;100909.86;107363;1253;74166;-77
2023/02/17 03:24:04;;;;;;;15.40;13.50;;;;;;;9.38;99.78;100907.58;107262;1253;60581;-78
2023/02/17 03:26:31;;;;;;;13.80;12.20;;;;;;;9.41;99.45;100901.67;107167;1253;60449;-77
2023/02/17 03:28:58;;;;;;;15.50;13.60;;;;;;;9.44;99.47;100904.95;107371;1253;73656;-78
2023/02/17 03:31:25;;;;;;;13.50;11.70;;;;;;;9.45;99.34;100903.93;107082;1253;69436;-77
2023/02/17 03:33:55;;;;;;;12.80;11.20;;;;;;;9.48;99.21;100905.19;106988;1253;71812;-76
2023/02/17 03:36:22;;;;;;;13.90;12.10;;;;;;;9.52;99.09;100901.25;108007;1254;62050;-78
2023/02/17 03:38:49;;;;;;;14.70;13.10;;;;;;;9.54;98.82;100901.72;106802;1257;61262;-78
2023/02/17 03:41:16;;;;;;;14.20;12.50;;;;;;;9.57;98.88;100899.84;106599;1257;72740;-77
2023/02/17 03:43:43;;;;;;;13.30;11.60;;;;;;;9.58;98.80;100902.52;106474;1253;72254;-79
2023/02/17 03:46:12;;;;;;;12.90;11.50;;;;;;;9.59;98.72;100903.13;106859;1253;71122;-79
2023/02/17 03:48:39;;;;;;;13.90;12.20;;;;;;;9.61;98.64;100894.48;106833;1254;60368;-78
2023/02/17 03:51:21;;;;;;;13.20;11.70;;;;;;;9.62;98.46;100887.44;106750;1254;60426;-79
2023/02/17 03:53:49;;;;;;;14.00;12.40;;;;;;;9.65;98.32;100884.15;106855;1257;73685;-76
2023/02/17 03:56:16;;;;;;;14.30;12.70;;;;;;;9.66;98.31;100874.49;107023;1253;70916;-77
2023/02/17 03:58:43;;;;;;;13.90;12.40;;;;;;;9.65;98.41;100877.91;107310;1257;71793;-78
2023/02/17 04:01:11;;;;;;;14.50;12.90;;;;;;;9.65;98.29;100875.95;106796;1258;60598;-78
2023/02/17 04:03:39;;;;;;;58.10;40.60;;;;;;;9.64;98.24;100873.60;106809;1255;60466;-79
2023/02/17 04:06:07;;;;;;;32.30;25.10;;;;;;;9.64;98.43;100874.16;106596;1256;73643;-79
2023/02/17 04:08:35;;;;;;;15.30;13.10;;;;;;;9.63;98.67;100878.19;106909;1254;70917;-78
2023/02/17 04:11:04;;;;;;;14.20;12.60;;;;;;;9.64;98.69;100871.74;106596;1254;71496;-78
2023/02/17 04:13:31;;;;;;;15.80;12.40;;;;;;;9.65;98.55;100874.23;106334;1260;60917;-78
2023/02/17 04:16:00;;;;;;;12.80;11.30;;;;;;;9.68;98.48;100867.02;106636;1256;60449;-78
2023/02/17 04:18:27;;;;;;;12.70;11.20;;;;;;;9.70;98.23;100864.73;107021;1253;74369;-77
2023/02/17 04:20:54;;;;;;;10.90;9.80;;;;;;;9.70;98.35;100866.75;106797;1258;70265;-78
2023/02/17 04:23:22;;;;;;;12.80;11.00;;;;;;;9.72;98.33;100858.98;106593;1254;72613;-77
2023/02/17 04:25:49;;;;;;;13.20;11.40;;;;;;;9.74;98.24;100861.95;106419;1256;61735;-77
2023/02/17 04:28:17;;;;;;;12.00;10.70;;;;;;;9.74;98.28;100862.71;106701;1253;60466;-78
2023/02/17 04:30:45;;;;;;;13.10;10.90;;;;;;;9.75;98.13;100867.38;106743;1253;73598;-78
2023/02/17 04:33:12;;;;;;;11.90;9.90;;;;;;;9.73;98.33;100874.63;106609;1256;69659;-77
2023/02/17 04:35:40;;;;;;;11.40;10.00;;;;;;;9.73;98.37;100871.62;106667;1253;73468;-76
2023/02/17 04:38:07;;;;;;;10.90;9.10;;;;;;;9.74;98.44;100866.16;106513;1253;62307;-79
2023/02/17 04:40:34;;;;;;;13.00;10.70;;;;;;;9.76;98.46;100865.10;106887;1252;60249;-79
2023/02/17 04:43:01;;;;;;;12.40;11.00;;;;;;;9.75;98.47;100868.77;106601;1257;73851;-80
2023/02/17 04:45:29;;;;;;;12.00;10.80;;;;;;;9.72;98.85;100859.73;106719;1256;70160;-78
2023/02/17 04:47:56;;;;;;;11.80;10.60;;;;;;;9.73;99.09;100852.75;106738;1253;71444;-79
2023/02/17 04:50:23;;;;;;;12.30;11.00;;;;;;;9.72;99.27;100846.83;106691;1253;61718;-79
2023/02/17 04:52:51;;;;;;;12.50;10.40;;;;;;;9.72;99.42;100850.89;106599;1253;60737;-77
2023/02/17 04:55:18;;;;;;;14.60;12.00;;;;;;;9.73;99.46;100845.70;106575;1254;74102;-79
2023/02/17 04:57:45;;;;;;;12.70;11.20;;;;;;;9.73;99.40;100851.49;106650;1258;70698;-79
2023/02/17 05:00:13;;;;;;;14.20;12.20;;;;;;;9.72;99.60;100846.84;107050;1253;72302;-78
2023/02/17 05:02:40;;;;;;;13.20;10.50;;;;;;;9.71;99.65;100851.02;106740;1253;61877;-76
2023/02/17 05:05:07;;;;;;;12.10;10.80;;;;;;;9.70;99.95;100846.88;106585;1256;60342;-77
2023/02/17 05:07:35;;;;;;;13.20;11.70;;;;;;;9.68;99.98;100848.31;106598;1259;74252;-79
2023/02/17 05:10:02;;;;;;;14.50;11.80;;;;;;;9.68;100.00;100848.80;106623;1259;69675;-78
2023/02/17 05:12:29;;;;;;;15.60;12.40;;;;;;;9.66;100.00;100846.88;106631;1253;71197;-78
2023/02/17 05:14:56;;;;;;;14.40;11.20;;;;;;;9.64;100.00;100841.27;106955;1255;62082;-79
2023/02/17 05:17:23;;;;;;;12.80;11.10;;;;;;;9.64;100.00;100833.24;106686;1255;60598;-78
2023/02/17 05:19:50;;;;;;;13.30;11.40;;;;;;;9.62;100.00;100828.87;106552;1258;73706;-79
2023/02/17 05:22:17;;;;;;;15.10;12.80;;;;;;;9.58;100.00;100831.71;106569;1253;70954;-77
2023/02/17 05:24:44;;;;;;;14.80;13.20;;;;;;;9.58;100.00;100817.94;106906;1254;71663;-78
2023/02/17 05:27:12;;;;;;;15.80;13.20;;;;;;;9.56;100.00;100816.69;108157;1253;61684;-78
2023/02/17 05:29:39;;;;;;;13.00;11.20;;;;;;;9.54;100.00;100812.91;106679;1255;60353;-76
2023/02/17 05:32:06;;;;;;;13.10;11.40;;;;;;;9.52;100.00;100804.46;106524;1257;73409;-76
2023/02/17 05:34:34;;;;;;;15.20;13.20;;;;;;;9.51;100.00;100805.98;107051;1256;69882;-76
2023/02/17 05:37:01;;;;;;;14.10;12.60;;;;;;;9.51;100.00;100804.04;106476;1253;71998;-76
2023/02/17 05:39:29;;;;;;;13.80;12.10;;;;;;;9.50;100.00;100803.44;106803;1253;61895;-76
2023/02/17 05:41:56;;;;;;;14.10;11.80;;;;;;;9.51;100.00;100801.58;106438;1254;60504;-77
2023/02/17 05:44:22;;;;;;;14.70;12.30;;;;;;;9.52;100.00;100799.83;106586;1258;72437;-75
2023/02/17 05:46:49;;;;;;;14.40;12.40;;;;;;;9.53;100.00;100800.09;106853;1253;71441;-78
2023/02/17 05:49:16;;;;;;;13.00;11.60;;;;;;;9.55;100.00;100795.30;106593;1254;71882;-76
2023/02/17 05:51:44;;;;;;;12.00;10.80;;;;;;;9.58;100.00;100798.57;106504;1259;60571;-76
2023/02/17 05:54:10;;;;;;;13.10;11.30;;;;;;;9.62;100.00;100796.06;106592;1256;60438;-75
2023/02/17 05:56:37;;;;;;;13.90;12.20;;;;;;;9.65;100.00;100790.36;106755;1254;72689;-75
2023/02/17 05:59:05;;;;;;;13.90;12.30;;;;;;;9.69;100.00;100781.75;106599;1257;70156;-76
2023/02/17 06:01:32;;;;;;;13.50;10.70;;;;;;;9.74;100.00;100780.55;106604;1259;71271;-75
2023/02/17 06:03:58;;;;;;;15.50;13.30;;;;;;;9.77;99.96;100765.30;106799;1258;60809;-76
2023/02/17 06:06:25;;;;;;;17.10;15.10;;;;;;;9.84;99.68;100768.02;106875;1253;60500;-74
2023/02/17 06:08:52;;;;;;;14.20;12.70;;;;;;;9.89;99.10;100766.27;106710;1253;73399;-77
2023/02/17 06:11:19;;;;;;;13.60;11.60;;;;;;;9.92;98.25;100764.95;106567;1256;69718;-77
2023/02/17 06:13:46;;;;;;;12.30;10.80;;;;;;;9.96;97.74;100760.12;106524;1253;72524;-75
2023/02/17 06:16:13;;;;;;;13.90;11.50;;;;;;;10.00;97.14;100766.00;106606;1254;60809;-77
2023/02/17 06:18:40;;;;;;;13.20;11.50;;;;;;;10.04;96.62;100775.54;106824;1256;60044;-77
2023/02/17 06:21:07;;;;;;;12.50;11.20;;;;;;;10.08;96.09;100769.95;106848;1255;73619;-76
2023/02/17 06:23:34;;;;;;;13.80;11.00;;;;;;;10.11;95.30;100771.56;106799;1258;69004;-76
2023/02/17 06:26:01;;;;;;;14.40;11.60;;;;;;;10.16;94.72;100772.75;106507;1256;72055;-75
2023/02/17 06:28:28;;;;;;;14.30;12.10;;;;;;;10.19;94.19;100780.87;107440;1256;61859;-77
2023/02/17 06:30:54;;;;;;;14.80;11.50;;;;;;;10.24;93.84;100781.48;106864;1255;59955;-78
2023/02/17 06:33:21;;;;;;;14.60;12.10;;;;;;;10.27;93.32;100784.95;106443;1256;73947;-78
2023/02/17 06:35:50;;;;;;;13.80;12.20;;;;;;;10.28;92.60;100781.50;106479;1256;70000;-76
2023/02/17 06:38:17;;;;;;;14.80;12.20;;;;;;;10.30;92.24;100775.95;106783;1254;71455;-76
2023/02/17 06:40:44;;;;;;;15.50;12.80;;;;;;;10.32;92.08;100771.58;107125;1253;60489;-74
2023/02/17 06:43:11;;;;;;;14.40;12.30;;;;;;;10.34;91.50;100766.80;106741;1255;60448;-75
2023/02/17 06:45:38;;;;;;;15.20;13.30;;;;;;;10.36;91.24;100760.97;106872;1255;72840;-74
2023/02/17 06:48:05;;;;;;;15.60;13.20;;;;;;;10.35;90.14;100760.26;106577;1257;69621;-74
2023/02/17 06:50:31;;;;;;;15.80;13.30;;;;;;;10.39;89.98;100745.83;106391;1253;72352;-72
2023/02/17 06:52:58;;;;;;;14.20;11.70;;;;;;;10.40;89.52;100748.58;106571;1253;61705;-73
2023/02/17 06:55:25;;;;;;;16.50;12.90;;;;;;;10.41;89.00;100747.17;106534;1253;60439;-72
2023/02/17 06:57:52;;;;;;;15.00;13.40;;;;;;;10.46;89.03;100739.46;106409;1253;72809;-73
2023/02/17 07:00:20;;;;;;;16.80;13.30;;;;;;;10.45;88.68;100741.85;106557;1254;71001;-73
2023/02/17 07:02:47;;;;;;;14.30;11.90;;;;;;;10.46;88.33;100739.56;106715;1253;71118;-73
2023/02/17 07:05:14;;;;;;;15.60;13.70;;;;;;;10.48;88.42;100746.45;107440;1253;60516;-75
2023/02/17 07:07:40;;;;;;;16.80;14.20;;;;;;;10.49;88.33;100759.61;107107;1254;60552;-72
2023/02/17 07:10:08;;;;;;;16.50;13.60;;;;;;;10.51;88.29;100754.46;106824;1253;72327;-75
2023/02/17 07:12:35;;;;;;;15.00;13.40;;;;;;;10.51;88.18;100755.29;106928;1257;70008;-76
2023/02/17 07:15:02;;;;;;;16.40;14.30;;;;;;;10.51;88.07;100760.99;106708;1257;73041;-74
2023/02/17 07:17:29;;;;;;;15.80;14.20;;;;;;;10.52;88.20;100753.92;106444;1253;60527;-75
2023/02/17 07:19:56;;;;;;;14.60;13.00;;;;;;;10.54;88.12;100746.42;106537;1258;60442;-75
2023/02/17 07:22:24;;;;;;;12.80;11.40;;;;;;;10.54;87.88;100755.67;106576;1255;72328;-73
2023/02/17 07:24:51;;;;;;;14.60;12.20;;;;;;;10.54;87.40;100757.06;107011;1255;71393;-75
2023/02/17 07:27:18;;;;;;;14.70;12.70;;;;;;;10.55;87.17;100759.23;106689;1254;72389;-75
2023/02/17 07:29:45;;;;;;;14.20;12.40;;;;;;;10.57;87.37;100751.08;106609;1253;60704;-74
2023/02/17 07:32:12;;;;;;;14.80;12.80;;;;;;;10.59;87.32;100749.73;106745;1253;60915;-74
2023/02/17 07:34:39;;;;;;;13.90;12.30;;;;;;;10.59;87.33;100739.16;106895;1254;73024;-73
2023/02/17 07:37:07;;;;;;;14.60;12.50;;;;;;;10.62;87.31;100726.69;106547;1260;74366;-76
2023/02/17 07:39:34;;;;;;;16.50;13.80;;;;;;;10.61;87.34;100721.95;106614;1253;73251;-74
2023/02/17 07:42:03;;;;;;;15.60;13.70;;;;;;;10.63;87.63;100728.70;106758;1253;60556;-73
2023/02/17 07:44:30;;;;;;;15.90;13.30;;;;;;;10.64;87.60;100719.54;106394;1253;60546;-75
2023/02/17 07:46:57;;;;;;;18.20;16.00;;;;;;;10.66;87.71;100707.82;106593;1253;316108;-75
2023/02/17 07:49:24;;;;;;;17.90;15.40;;;;;;;10.68;87.74;100706.21;106843;1256;71766;-71
2023/02/17 07:51:51;;;;;;;19.60;16.90;;;;;;;10.68;88.15;100705.63;107053;1254;72385;-73
2023/02/17 07:54:18;;;;;;;19.40;16.90;;;;;;;10.69;88.30;100710.25;107872;1254;61011;-74
2023/02/17 07:56:45;;;;;;;18.90;15.80;;;;;;;10.70;88.55;100711.45;106881;1253;60364;-74
2023/02/17 07:59:12;;;;;;;19.40;16.30;;;;;;;10.70;88.62;100706.14;106527;1253;73604;-74
2023/02/17 08:01:40;;;;;;;22.00;18.10;;;;;;;10.71;88.76;100694.52;106681;1253;71218;-74
2023/02/17 08:04:06;;;;;;;20.50;17.80;;;;;;;10.70;88.85;100702.55;106295;1254;72727;-77
2023/02/17 08:06:33;;;;;;;18.50;16.50;;;;;;;10.73;88.85;100696.36;106417;1255;60857;-76
2023/02/17 08:14:32;;;;;;;18.50;16.20;;;;;;;10.73;88.87;100692.69;106681;1255;71854;-74
2023/02/17 08:16:59;;;;;;;15.90;14.20;;;;;;;10.75;88.80;100688.73;106460;1253;72856;-77
2023/02/17 08:19:26;;;;;;;18.30;15.20;;;;;;;10.74;88.81;100697.13;106537;1254;61507;-77
2023/02/17 08:22:08;;;;;;;15.70;13.90;;;;;;;10.75;89.02;100692.58;106679;1257;60521;-76
2023/02/17 08:24:35;;;;;;;16.50;13.40;;;;;;;10.77;89.09;100688.15;106497;1253;73582;-75
2023/02/17 08:27:02;;;;;;;14.90;13.30;;;;;;;10.80;89.03;100678.98;106539;1256;70973;-73
2023/02/17 08:29:28;;;;;;;18.40;13.60;;;;;;;10.82;88.90;100676.73;106903;1256;71474;-74
2023/02/17 08:31:55;;;;;;;15.40;13.00;;;;;;;10.84;89.00;100677.83;106754;1257;61992;-74
2023/02/17 08:34:22;;;;;;;14.80;12.90;;;;;;;10.85;89.04;100674.00;106405;1260;61297;-73
2023/02/17 08:36:49;;;;;;;14.30;12.60;;;;;;;10.85;88.94;100675.36;106657;1254;75197;-75
2023/02/17 08:39:17;;;;;;;14.70;12.30;;;;;;;10.85;89.26;100673.56;106447;1253;70196;-76
2023/02/17 08:41:45;;;;;;;13.90;12.30;;;;;;;10.86;89.20;100662.68;106740;1253;70616;-73
2023/02/17 08:44:15;;;;;;;15.00;12.30;;;;;;;10.88;89.18;100670.76;106635;1254;62016;-75
2023/02/17 08:46:43;;;;;;;11.90;10.70;;;;;;;10.89;89.18;100668.59;106730;1253;60910;-76
2023/02/17 08:49:10;;;;;;;13.10;11.70;;;;;;;10.91;89.33;100661.61;106452;1258;73590;-74
2023/02/17 08:51:37;;;;;;;11.40;9.60;;;;;;;10.92;89.35;100668.20;106433;1261;69604;-75
2023/02/17 08:54:06;;;;;;;14.00;10.90;;;;;;;10.92;89.47;100659.98;106712;1255;71494;-75
2023/02/17 08:56:33;;;;;;;11.40;10.20;;;;;;;10.92;89.66;100660.21;106906;1254;60517;-79
2023/02/17 08:59:01;;;;;;;11.40;10.20;;;;;;;10.92;89.82;100657.89;106625;1259;60529;-75
2023/02/17 09:01:28;;;;;;;11.40;9.60;;;;;;;10.93;89.95;100657.09;106835;1253;72641;-74
2023/02/17 09:03:56;;;;;;;10.80;9.70;;;;;;;10.95;89.99;100648.77;106635;1257;69795;-74
2023/02/17 09:06:30;;;;;;;11.90;10.30;;;;;;;10.97;90.15;100657.14;106872;1254;72482;-74
2023/02/17 09:08:56;;;;;;;12.30;10.10;;;;;;;10.96;90.12;100660.61;106535;1256;61547;-74
2023/02/17 09:11:23;;;;;;;10.70;9.60;;;;;;;10.97;90.44;100653.06;106707;1259;60440;-73
2023/02/17 09:13:50;;;;;;;10.50;9.30;;;;;;;10.99;90.60;100656.98;106649;1256;74415;-74
2023/02/17 09:16:19;;;;;;;10.10;8.70;;;;;;;10.99;90.69;100645.35;106935;1253;72230;-73
2023/02/17 09:18:46;;;;;;;11.10;8.30;;;;;;;11.00;90.82;100653.94;106317;1259;72682;-74
2023/02/17 09:21:13;;;;;;;9.20;8.20;;;;;;;10.99;90.93;100649.43;106605;1255;60757;-75
2023/02/17 09:23:40;;;;;;;9.90;8.40;;;;;;;11.02;90.91;100637.63;106374;1256;60567;-77
2023/02/17 09:26:09;;;;;;;10.00;8.40;;;;;;;11.01;91.08;100643.01;106635;1254;72993;-74
2023/02/17 09:28:37;;;;;;;8.80;7.90;;;;;;;11.04;91.28;100643.83;106316;1257;72035;-74
2023/02/17 09:31:24;;;;;;;8.00;7.00;;;;;;;11.05;91.50;100653.06;106158;1257;72706;-75
2023/02/17 09:33:52;;;;;;;10.70;7.40;;;;;;;11.06;91.72;100641.29;106592;1254;61330;-74
2023/02/17 09:36:22;;;;;;;9.00;8.00;;;;;;;11.09;91.73;100635.77;106569;1253;60360;-73
2023/02/17 09:38:49;;;;;;;8.70;7.30;;;;;;;11.12;91.91;100632.24;106717;1257;72331;-75
2023/02/17 09:41:25;;;;;;;8.90;7.90;;;;;;;11.13;92.13;100638.17;106643;1254;69661;-76
2023/02/17 09:43:54;;;;;;;8.10;7.10;;;;;;;11.13;92.33;100635.09;106525;1260;72749;-75
2023/02/17 09:46:30;;;;;;;8.90;7.20;;;;;;;11.16;92.46;100626.75;106226;1260;62093;-77
2023/02/17 09:49:20;;;;;;;8.60;7.10;;;;;;;11.22;92.38;100632.44;106676;1259;61555;-75
2023/02/17 09:52:04;;;;;;;9.30;7.20;;;;;;;11.27;92.30;100630.16;106592;1256;73574;-76
2023/02/17 09:54:36;;;;;;;7.50;6.70;;;;;;;11.32;92.33;100629.92;106260;1257;70022;-74
2023/02/17 09:57:07;;;;;;;7.10;6.30;;;;;;;11.34;92.37;100630.30;106656;1259;73569;-75
2023/02/17 09:59:55;;;;;;;6.50;5.60;;;;;;;11.38;92.54;100625.23;106423;1254;62061;-76
2023/02/17 10:02:47;;;;;;;8.20;6.50;;;;;;;11.43;92.42;100607.13;106782;1254;60543;-74
2023/02/17 10:05:17;;;;;;;7.90;6.60;;;;;;;11.46;92.52;100625.56;106475;1259;73564;-74
2023/02/17 10:07:52;;;;;;;7.10;6.20;;;;;;;11.51;92.42;100613.45;106483;1258;70071;-75
2023/02/17 10:10:26;;;;;;;6.80;6.10;;;;;;;11.49;92.73;100606.84;106729;1254;72369;-76
2023/02/17 10:13:00;;;;;;;7.30;6.40;;;;;;;11.50;92.84;100596.03;106322;1260;60850;-75
2023/02/17 10:15:33;;;;;;;8.00;6.00;;;;;;;11.50;92.94;100608.86;106346;1258;60729;-74
2023/02/17 10:18:09;;;;;;;7.00;6.30;;;;;;;11.51;93.17;100612.02;106766;1258;73899;-76
2023/02/17 10:20:41;;;;;;;8.10;7.10;;;;;;;11.52;93.25;100591.64;106547;1256;71277;-75
2023/02/17 10:23:23;;;;;;;8.50;6.50;;;;;;;11.49;93.46;100601.89;106606;1254;71822;-79
2023/02/17 10:26:05;;;;;;;8.10;6.80;;;;;;;11.51;93.67;100610.11;106395;1253;60830;-76
2023/02/17 10:28:47;;;;;;;8.00;6.90;;;;;;;11.52;93.91;100611.10;106480;1257;60428;-77
2023/02/17 10:31:22;;;;;;;8.60;7.40;;;;;;;11.54;93.82;100586.39;106689;1255;75039;-77
2023/02/17 10:34:00;;;;;;;8.50;7.00;;;;;;;11.54;93.97;100597.19;106333;1257;69196;-77
2023/02/17 10:36:50;;;;;;;8.60;7.60;;;;;;;11.51;94.26;100604.48;106430;1258;72747;-77
2023/02/17 10:39:23;;;;;;;9.30;7.80;;;;;;;11.54;94.07;100605.92;107019;1254;62023;-76
2023/02/17 10:41:53;;;;;;;9.60;8.10;;;;;;;11.53;94.17;100613.10;106582;1259;60595;-77
2023/02/17 10:44:23;;;;;;;10.10;8.50;;;;;;;11.53;94.27;100606.20;106895;1254;72762;-75
2023/02/17 10:46:52;;;;;;;11.50;8.50;;;;;;;11.52;94.47;100609.67;106385;1259;71107;-76
2023/02/17 10:49:31;;;;;;;10.00;8.10;;;;;;;11.52;94.51;100605.17;106773;1258;73760;-77
2023/02/17 10:52:09;;;;;;;11.40;8.90;;;;;;;11.58;94.09;100583.99;106587;1253;60752;-77
2023/02/17 10:54:49;;;;;;;11.80;9.90;;;;;;;11.63;93.74;100582.17;106612;1254;60708;-79
2023/02/17 10:57:18;;;;;;;10.90;9.40;;;;;;;11.68;92.97;100581.30;106498;1257;73809;-78
2023/02/17 10:59:48;;;;;;;12.40;10.00;;;;;;;11.76;92.70;100573.20;107347;1253;71871;-76
2023/02/17 11:02:32;;;;;;;11.50;9.50;;;;;;;11.87;92.03;100572.86;106333;1257;72666;-78
2023/02/17 11:04:59;;;;;;;11.90;10.00;;;;;;;11.95;91.83;100565.64;106835;1254;61052;-77
2023/02/17 11:07:33;;;;;;;11.70;9.50;;;;;;;12.01;91.09;100563.33;106844;1259;60427;-77
2023/02/17 11:10:04;;;;;;;11.90;10.40;;;;;;;12.02;90.87;100556.39;107106;1259;73925;-79
2023/02/17 11:12:40;;;;;;;13.20;10.90;;;;;;;12.00;90.76;100564.17;106909;1256;71712;-78
2023/02/17 11:15:23;;;;;;;13.40;11.10;;;;;;;11.95;90.79;100570.48;106768;1256;74406;-76
2023/02/17 11:17:50;;;;;;;12.90;10.70;;;;;;;11.97;90.48;100550.77;106485;1255;61764;-78
2023/02/17 11:20:20;;;;;;;13.20;11.80;;;;;;;11.98;90.22;100548.33;106703;1254;60431;-77
2023/02/17 11:23:04;;;;;;;13.40;11.70;;;;;;;12.09;89.62;100541.30;106762;1257;71330;-75
2023/02/17 11:25:33;;;;;;;12.90;11.00;;;;;;;12.24;88.76;100542.67;107427;1255;69849;-75